createdAt,value
2022-08-05T00:00:17.878Z,94699.50
2022-08-05T00:02:51.505Z,94696.34
2022-08-05T00:06:02.911Z,94694.22
2022-08-05T00:08:19.740Z,94699.84
2022-08-05T00:10:57.130Z,94690.72
2022-08-05T00:13:38.461Z,94695.63
2022-08-05T00:16:12.688Z,94682.09
2022-08-05T00:18:42.775Z,94686.78
2022-08-05T00:21:12.677Z,94680.75
2022-08-05T00:23:46.614Z,94685.19
2022-08-05T00:26:22.343Z,94683.06
2022-08-05T00:28:51.039Z,94681.41
2022-08-05T00:31:41.513Z,94689.41
2022-08-05T00:34:54.016Z,94691.38
2022-08-05T00:37:11.269Z,94692.50
2022-08-05T00:39:44.471Z,94691.19
2022-08-05T00:42:32.654Z,94686.91
2022-08-05T00:45:00.757Z,94676.16
2022-08-05T00:47:53.300Z,94677.44
2022-08-05T00:50:17.761Z,94681.66
2022-08-05T00:52:46.771Z,94678.44
2022-08-05T00:55:14.906Z,94686.41
2022-08-05T00:57:58.269Z,94677.47
2022-08-05T01:00:27.459Z,94678.94
2022-08-05T01:02:57.236Z,94674.88
2022-08-05T01:05:27.472Z,94676.97
2022-08-05T01:08:42.774Z,94678.94
2022-08-05T01:10:52.518Z,94673.38
2022-08-05T01:13:27.532Z,94678.75
2022-08-05T01:16:28.218Z,94675.00
2022-08-05T01:19:02.184Z,94676.44
2022-08-05T01:21:42.831Z,94679.53
2022-08-05T01:24:30.702Z,94672.34
2022-08-05T01:27:17.523Z,94675.13
2022-08-05T01:29:50.334Z,94677.41
2022-08-05T01:32:22.969Z,94671.38
2022-08-05T01:34:55.356Z,94675.41
2022-08-05T01:37:27.424Z,94675.22
2022-08-05T01:39:58.973Z,94678.91
2022-08-05T01:42:28.040Z,94673.03
2022-08-05T01:44:59.163Z,94681.00
2022-08-05T01:47:30.523Z,94677.94
2022-08-05T01:50:15.351Z,94687.03
2022-08-05T01:52:45.394Z,94674.22
2022-08-05T01:55:19.521Z,94679.47
2022-08-05T01:58:09.488Z,94679.47
2022-08-05T02:00:39.745Z,94689.97
2022-08-05T02:03:16.412Z,94673.38
2022-08-05T02:05:59.616Z,94674.03
2022-08-05T02:08:31.310Z,94676.81
2022-08-05T02:11:03.531Z,94673.84
2022-08-05T02:13:53.375Z,94681.63
2022-08-05T02:16:24.945Z,94676.41
2022-08-05T02:18:57.471Z,94683.09
2022-08-05T02:21:28.225Z,94685.66
2022-08-05T02:24:01.641Z,94689.88
2022-08-05T02:26:37.601Z,94680.91
2022-08-05T02:29:17.302Z,94678.16
2022-08-05T02:31:55.470Z,94676.03
2022-08-05T02:34:24.391Z,94681.16
2022-08-05T02:36:58.099Z,94681.81
2022-08-05T02:39:26.415Z,94684.88
2022-08-05T02:42:00.941Z,94680.00
2022-08-05T02:44:30.014Z,94684.50
2022-08-05T02:47:01.083Z,94684.31
2022-08-05T02:49:36.723Z,94682.34
2022-08-05T02:52:08.622Z,94681.88
2022-08-05T02:54:41.610Z,94690.47
2022-08-05T02:58:10.885Z,94680.69
2022-08-05T03:00:02.666Z,94684.69
2022-08-05T03:02:35.700Z,94677.84
2022-08-05T03:05:04.710Z,94678.66
2022-08-05T03:08:00.147Z,94672.84
2022-08-05T03:10:25.040Z,94672.00
2022-08-05T03:12:53.510Z,94675.59
2022-08-05T03:15:21.586Z,94671.94
2022-08-05T03:17:54.159Z,94676.16
2022-08-05T03:20:24.289Z,94674.19
2022-08-05T03:22:52.526Z,94683.59
2022-08-05T03:26:02.584Z,94674.63
2022-08-05T03:28:09.920Z,94668.31
2022-08-05T03:30:38.325Z,94665.19
2022-08-05T03:33:10.303Z,94656.59
2022-08-05T03:35:40.687Z,94661.00
2022-08-05T03:38:09.113Z,94663.78
2022-08-05T03:40:41.179Z,94660.31
2022-08-05T03:43:58.722Z,94660.91
2022-08-05T03:46:01.458Z,94665.09
2022-08-05T03:48:30.943Z,94666.44
2022-08-05T03:52:38.455Z,94678.00
2022-08-05T03:56:01.121Z,94684.34
2022-08-05T03:56:51.897Z,94699.91
2022-08-05T03:59:24.527Z,94713.50
2022-08-05T04:01:53.112Z,94718.19
2022-08-05T04:04:28.268Z,94730.91
2022-08-05T04:06:56.260Z,94742.44
2022-08-05T04:09:26.557Z,94726.19
2022-08-05T04:11:56.431Z,94728.94
2022-08-05T04:14:29.853Z,94721.50
2022-08-05T04:16:59.857Z,94725.78
2022-08-05T04:19:29.708Z,94724.47
2022-08-05T04:22:08.789Z,94719.69
2022-08-05T04:24:44.552Z,94728.59
2022-08-05T04:27:13.485Z,94724.19
2022-08-05T04:29:41.488Z,94723.38
2022-08-05T04:32:09.793Z,94724.88
2022-08-05T04:34:42.947Z,94733.38
2022-08-05T04:37:11.114Z,94731.44
2022-08-05T04:39:39.174Z,94733.28
2022-08-05T04:42:09.141Z,94731.69
2022-08-05T04:44:36.908Z,94725.78
2022-08-05T04:47:08.899Z,94731.19
2022-08-05T04:50:01.485Z,94726.69
2022-08-05T04:52:28.158Z,94728.84
2022-08-05T04:54:57.233Z,94735.38
2022-08-05T04:57:28.558Z,94724.19
2022-08-05T04:59:57.544Z,94738.47
2022-08-05T05:02:36.304Z,94741.78
2022-08-05T05:05:16.573Z,94737.03
2022-08-05T05:08:01.469Z,94737.75
2022-08-05T05:10:30.326Z,94733.00
2022-08-05T05:12:58.519Z,94734.38
2022-08-05T05:15:56.974Z,94735.75
2022-08-05T05:18:15.056Z,94735.81
2022-08-05T05:20:58.492Z,94742.25
2022-08-05T05:23:26.447Z,94749.31
2022-08-05T05:25:54.249Z,94743.50
2022-08-05T05:28:22.138Z,94747.59
2022-08-05T05:30:52.645Z,94750.06
2022-08-05T05:33:23.353Z,94743.72
2022-08-05T05:35:51.886Z,94751.22
2022-08-05T05:38:22.175Z,94756.63
2022-08-05T05:40:51.566Z,94761.69
2022-08-05T05:43:27.961Z,94759.56
2022-08-05T05:46:13.708Z,94758.09
2022-08-05T05:48:44.480Z,94766.56
2022-08-05T05:51:15.285Z,94765.25
2022-08-05T05:53:54.521Z,94759.94
2022-08-05T05:56:32.387Z,94759.72
2022-08-05T05:59:03.623Z,94759.88
2022-08-05T06:01:37.877Z,94763.44
2022-08-05T06:04:11.778Z,94767.16
2022-08-05T06:06:41.764Z,94775.41
2022-08-05T06:09:18.072Z,94779.09
2022-08-05T06:12:01.035Z,94768.38
2022-08-05T06:14:30.371Z,94761.38
2022-08-05T06:16:58.549Z,94755.44
2022-08-05T06:19:34.882Z,94758.53
2022-08-05T06:22:03.479Z,94767.38
2022-08-05T06:24:32.600Z,94767.22
2022-08-05T06:27:00.400Z,94761.44
2022-08-05T06:29:49.436Z,94771.69
2022-08-05T06:32:25.056Z,94778.78
2022-08-05T06:34:56.832Z,94784.28
2022-08-05T06:37:56.546Z,94779.78
2022-08-05T06:40:18.267Z,94787.56
2022-08-05T06:42:52.168Z,94782.00
2022-08-05T06:45:44.691Z,94784.09
2022-08-05T06:48:36.565Z,94794.19
2022-08-05T06:50:57.133Z,94800.59
2022-08-05T06:53:28.417Z,94795.69
2022-08-05T06:55:58.254Z,94787.81
2022-08-05T06:58:35.205Z,94793.38
2022-08-05T07:01:05.619Z,94800.25
2022-08-05T07:03:34.034Z,94806.97
2022-08-05T07:06:05.713Z,94807.09
2022-08-05T07:08:42.723Z,94810.81
2022-08-05T07:11:15.269Z,94816.28
2022-08-05T07:14:00.780Z,94815.94
2022-08-05T07:17:59.875Z,94818.59
2022-08-05T07:22:28.699Z,94844.00
2022-08-05T07:25:09.535Z,94857.59
2022-08-05T07:27:58.047Z,94856.41
2022-08-05T07:30:32.750Z,94863.41
2022-08-05T07:33:01.472Z,94875.53
2022-08-05T07:36:05.157Z,94874.03
2022-08-05T07:38:32.581Z,94870.41
2022-08-05T07:41:16.740Z,94881.69
2022-08-05T07:43:55.072Z,94879.28
2022-08-05T07:46:26.079Z,94880.31
2022-08-05T07:49:02.218Z,94888.69
2022-08-05T07:51:37.145Z,94897.63
2022-08-05T07:54:09.853Z,94914.94
2022-08-05T07:57:02.704Z,94922.16
2022-08-05T07:59:38.402Z,94921.50
2022-08-05T08:02:10.673Z,94930.03
2022-08-05T08:04:45.044Z,94929.19
2022-08-05T08:07:13.066Z,94930.56
2022-08-05T08:09:40.862Z,94938.59
2022-08-05T08:12:20.223Z,94932.03
2022-08-05T08:15:01.981Z,94945.47
2022-08-05T08:17:30.749Z,94936.06
2022-08-05T08:20:43.977Z,94933.75
2022-08-05T08:22:52.091Z,94931.53
2022-08-05T08:25:26.913Z,94941.22
2022-08-05T08:28:18.289Z,94947.59
2022-08-05T08:30:49.665Z,94941.41
2022-08-05T08:33:19.844Z,94938.63
2022-08-05T08:35:53.801Z,94957.59
2022-08-05T08:38:35.248Z,94945.72
2022-08-05T08:41:08.585Z,94947.78
2022-08-05T08:45:19.346Z,94956.09
2022-08-05T08:46:28.586Z,94974.31
2022-08-05T08:49:08.100Z,94971.47
2022-08-05T08:52:03.433Z,94968.78
2022-08-05T08:54:36.476Z,94974.88
2022-08-05T08:57:11.435Z,94979.31
2022-08-05T08:59:41.973Z,94981.75
2022-08-05T09:02:18.942Z,94983.03
2022-08-05T09:04:58.263Z,94977.38
2022-08-05T09:07:39.694Z,94978.53
2022-08-05T09:10:27.931Z,94978.22
2022-08-05T09:13:05.061Z,94979.56
2022-08-05T09:15:37.123Z,94990.94
2022-08-05T09:18:10.081Z,94993.88
2022-08-05T09:20:41.997Z,95000.19
2022-08-05T09:23:18.980Z,95001.88
2022-08-05T09:26:02.328Z,94990.78
2022-08-05T09:28:34.254Z,95002.34
2022-08-05T09:31:18.152Z,95008.81
2022-08-05T09:33:58.586Z,95007.41
2022-08-05T09:36:54.767Z,95007.72
2022-08-05T09:39:42.017Z,95007.72
2022-08-05T09:42:21.225Z,95010.78
2022-08-05T09:45:00.437Z,95008.91
2022-08-05T09:47:47.963Z,95008.31
2022-08-05T09:50:38.927Z,95014.03
2022-08-05T09:53:12.063Z,95012.00
2022-08-05T09:56:04.049Z,95013.81
2022-08-05T09:58:32.834Z,95011.03
2022-08-05T10:01:02.314Z,95014.09
2022-08-05T10:03:59.092Z,95015.44
2022-08-05T10:06:29.126Z,95019.94
2022-08-05T10:09:27.381Z,95019.72
2022-08-05T10:12:29.966Z,95022.47
2022-08-05T10:15:17.132Z,95027.22
2022-08-05T10:17:54.512Z,95031.41
2022-08-05T10:20:26.658Z,95024.66
2022-08-05T10:22:57.212Z,95017.97
2022-08-05T10:25:26.457Z,95028.91
2022-08-05T10:28:13.681Z,95019.94
2022-08-05T10:32:48.283Z,95018.56
2022-08-05T10:33:35.282Z,95020.75
2022-08-05T10:36:05.114Z,95009.88
2022-08-05T10:38:35.265Z,95006.56
2022-08-05T10:41:07.902Z,95013.94
2022-08-05T10:43:42.125Z,95007.63
2022-08-05T10:46:13.333Z,95003.16
2022-08-05T10:48:57.071Z,95002.31
2022-08-05T10:51:28.956Z,94996.41
2022-08-05T10:54:00.944Z,94996.03
2022-08-05T10:56:31.511Z,94994.28
2022-08-05T10:59:12.213Z,94997.44
2022-08-05T11:02:07.651Z,94995.63
2022-08-05T11:04:44.586Z,94992.59
2022-08-05T11:07:17.966Z,94994.53
2022-08-05T11:10:09.549Z,94993.78
2022-08-05T11:12:50.909Z,94995.66
2022-08-05T11:15:58.880Z,94996.75
2022-08-05T11:18:25.320Z,94992.59
2022-08-05T11:20:53.516Z,94998.78
2022-08-05T11:24:04.297Z,94998.16
2022-08-05T11:26:28.646Z,94992.31
2022-08-05T11:29:12.146Z,94997.41
2022-08-05T11:31:57.715Z,94987.19
2022-08-05T11:34:38.884Z,94984.47
2022-08-05T11:38:26.359Z,94987.09
2022-08-05T11:39:55.528Z,94981.84
2022-08-05T11:42:33.149Z,94979.91
2022-08-05T11:45:27.037Z,94988.38
2022-08-05T11:47:56.915Z,94988.63
2022-08-05T11:50:27.066Z,94975.19
2022-08-05T11:53:09.879Z,94974.41
2022-08-05T11:55:37.786Z,94971.44
2022-08-05T11:58:10.320Z,94976.09
2022-08-05T12:00:41.442Z,94975.44
2022-08-05T12:03:24.065Z,94971.63
2022-08-05T12:06:02.476Z,94971.28
2022-08-05T12:08:32.691Z,94963.50
2022-08-05T12:11:05.490Z,94955.03
2022-08-05T12:13:49.670Z,94957.00
2022-08-05T12:16:25.461Z,94957.38
2022-08-05T12:18:55.276Z,94953.72
2022-08-05T12:21:26.886Z,94955.38
2022-08-05T12:24:04.274Z,94958.94
2022-08-05T12:26:33.331Z,94948.28
2022-08-05T12:29:03.146Z,94945.97
2022-08-05T12:31:41.535Z,94942.78
2022-08-05T12:34:21.262Z,94936.47
2022-08-05T12:36:51.715Z,94937.28
2022-08-05T12:39:20.154Z,94942.16
2022-08-05T12:41:48.713Z,94939.84
2022-08-05T12:44:21.635Z,94939.66
2022-08-05T12:47:01.887Z,94936.69
2022-08-05T12:50:04.251Z,94936.31
2022-08-05T12:52:33.916Z,94926.59
2022-08-05T12:55:17.899Z,94924.69
2022-08-05T12:58:50.870Z,94928.59
2022-08-05T13:02:01.886Z,94918.81
2022-08-05T13:03:32.474Z,94915.91
2022-08-05T13:06:01.110Z,94901.63
2022-08-05T13:08:30.368Z,94909.09
2022-08-05T13:11:02.236Z,94911.44
2022-08-05T13:14:05.134Z,94916.94
2022-08-05T13:16:20.767Z,94919.09
2022-08-05T13:18:57.723Z,94917.34
2022-08-05T13:21:48.237Z,94925.59
2022-08-05T13:24:27.752Z,94920.72
2022-08-05T13:27:11.207Z,94922.59
2022-08-05T13:29:59.491Z,94916.66
2022-08-05T13:32:39.415Z,94920.69
2022-08-05T13:35:10.679Z,94905.94
2022-08-05T13:37:38.506Z,94897.06
2022-08-05T13:40:16.839Z,94897.78
2022-08-05T13:42:55.544Z,94896.56
2022-08-05T13:45:23.509Z,94888.19
2022-08-05T13:48:08.708Z,94889.78
2022-08-05T13:50:50.876Z,94884.72
2022-08-05T13:53:21.022Z,94893.72
2022-08-05T13:55:57.654Z,94895.97
2022-08-05T13:58:30.742Z,94884.84
2022-08-05T14:00:59.050Z,94883.72
2022-08-05T14:03:38.260Z,94878.53
2022-08-05T14:06:26.721Z,94874.50
2022-08-05T14:08:54.661Z,94876.84
2022-08-05T14:11:22.453Z,94873.22
2022-08-05T14:13:55.055Z,94868.38
2022-08-05T14:16:25.622Z,94865.53
2022-08-05T14:18:54.771Z,94845.78
2022-08-05T14:22:08.936Z,94855.13
2022-08-05T14:24:12.404Z,94848.63
2022-08-05T14:26:47.183Z,94846.22
2022-08-05T14:29:28.111Z,94839.34
2022-08-05T14:32:11.278Z,94835.72
2022-08-05T14:34:45.133Z,94821.19
2022-08-05T14:37:14.118Z,94825.59
2022-08-05T14:39:50.002Z,94809.03
2022-08-05T14:42:25.140Z,94812.31
2022-08-05T14:44:53.531Z,94801.50
2022-08-05T14:48:02.421Z,94800.69
2022-08-05T14:50:19.147Z,94803.16
2022-08-05T14:52:53.643Z,94795.66
2022-08-05T14:55:25.775Z,94789.50
2022-08-05T14:57:56.776Z,94794.66
2022-08-05T15:00:28.026Z,94794.50
2022-08-05T15:02:56.437Z,94802.78
2022-08-05T15:05:29.821Z,94807.50
2022-08-05T15:08:38.025Z,94809.13
2022-08-05T15:11:02.910Z,94802.03
2022-08-05T15:13:45.795Z,94800.75
2022-08-05T15:16:14.536Z,94812.88
2022-08-05T15:18:42.467Z,94818.19
2022-08-05T15:21:21.182Z,94819.16
2022-08-05T15:23:49.034Z,94821.47
2022-08-05T15:26:17.529Z,94822.53
2022-08-05T15:29:00.087Z,94823.16
2022-08-05T15:31:34.969Z,94823.97
2022-08-05T15:34:18.291Z,94828.75
2022-08-05T15:36:52.114Z,94821.38
2022-08-05T15:40:59.388Z,94818.22
2022-08-05T15:42:53.469Z,94818.75
2022-08-05T15:44:55.506Z,94827.53
2022-08-05T15:47:23.631Z,94816.13
2022-08-05T15:49:59.110Z,94825.09
2022-08-05T15:52:51.867Z,94836.16
2022-08-05T15:55:17.624Z,94834.53
2022-08-05T15:57:48.922Z,94837.53
2022-08-05T16:00:26.199Z,94831.03
2022-08-05T16:03:00.685Z,94823.66
2022-08-05T16:05:28.706Z,94821.19
2022-08-05T16:07:57.772Z,94826.41
2022-08-05T16:10:26.908Z,94820.41
2022-08-05T16:12:55.962Z,94818.56
2022-08-05T16:15:24.359Z,94819.38
2022-08-05T16:18:00.348Z,94819.59
2022-08-05T16:20:28.135Z,94821.47
2022-08-05T16:22:57.392Z,94823.41
2022-08-05T16:25:34.160Z,94816.50
2022-08-05T16:28:05.425Z,94820.19
2022-08-05T16:30:36.001Z,94816.19
2022-08-05T16:33:04.081Z,94818.63
2022-08-05T16:35:32.299Z,94817.34
2022-08-05T16:38:15.644Z,94826.44
2022-08-05T16:40:55.198Z,94828.81
2022-08-05T16:43:24.149Z,94834.31
2022-08-05T16:46:04.344Z,94831.03
2022-08-05T16:48:40.569Z,94833.56
2022-08-05T16:51:10.754Z,94835.03
2022-08-05T16:54:02.934Z,94834.84
2022-08-05T16:56:30.019Z,94841.41
2022-08-05T16:58:57.940Z,94831.63
2022-08-05T17:01:25.960Z,94830.59
2022-08-05T17:03:53.860Z,94824.16
2022-08-05T17:07:38.904Z,94834.72
2022-08-05T17:10:08.197Z,94830.63
2022-08-05T17:12:51.781Z,94831.41
2022-08-05T17:15:20.197Z,94831.09
2022-08-05T17:17:54.993Z,94833.56
2022-08-05T17:20:23.131Z,94841.00
2022-08-05T17:22:55.706Z,94831.81
2022-08-05T17:25:39.421Z,94834.94
2022-08-05T17:28:09.132Z,94829.25
2022-08-05T17:30:42.425Z,94835.97
2022-08-05T17:33:18.656Z,94830.53
2022-08-05T17:36:09.111Z,94833.50
2022-08-05T17:38:35.661Z,94830.88
2022-08-05T17:41:04.757Z,94827.69
2022-08-05T17:43:50.276Z,94837.28
2022-08-05T17:46:20.759Z,94837.66
2022-08-05T17:48:48.920Z,94841.69
2022-08-05T17:51:21.535Z,94837.78
2022-08-05T17:53:50.723Z,94844.75
2022-08-05T17:56:23.930Z,94842.06
2022-08-05T17:58:56.276Z,94838.00
2022-08-05T18:01:24.031Z,94833.16
2022-08-05T18:04:04.765Z,94830.78
2022-08-05T18:06:33.704Z,94844.63
2022-08-05T18:09:03.781Z,94854.13
2022-08-05T18:11:34.005Z,94855.56
2022-08-05T18:14:04.316Z,94853.69
2022-08-05T18:16:35.043Z,94862.16
2022-08-05T18:23:11.369Z,94876.44
2022-08-05T18:25:45.348Z,94877.16
2022-08-05T18:32:02.136Z,94875.25
2022-08-05T18:35:20.499Z,94885.63
2022-08-05T18:42:04.651Z,94900.91
2022-08-05T18:44:49.279Z,94901.06
2022-08-05T18:47:26.878Z,94900.56
2022-08-05T18:50:13.245Z,94910.06
2022-08-05T18:56:30.817Z,94912.13
2022-08-05T19:02:49.297Z,94934.44
2022-08-05T19:06:05.631Z,94939.66
2022-08-05T19:08:12.222Z,94938.78
2022-08-05T19:10:41.682Z,94952.25
2022-08-05T19:13:15.761Z,94965.06
2022-08-05T19:15:59.303Z,94958.88
2022-08-05T19:22:17.106Z,94962.91
2022-08-05T19:25:21.682Z,94955.06
2022-08-05T19:28:36.955Z,94967.97
2022-08-05T19:31:44.988Z,94974.53
2022-08-05T19:34:20.134Z,94972.59
2022-08-05T19:40:37.795Z,94979.34
2022-08-05T19:43:07.326Z,94985.72
2022-08-05T19:45:36.855Z,94983.06
2022-08-05T19:48:05.468Z,94979.25
2022-08-05T19:50:34.921Z,94972.88
2022-08-05T19:53:09.619Z,94972.88
2022-08-05T19:56:15.674Z,94975.06
2022-08-05T19:58:30.113Z,94975.44
2022-08-05T20:00:58.046Z,94968.41
2022-08-05T20:03:26.503Z,94964.22
2022-08-05T20:07:04.552Z,94971.16
2022-08-05T20:09:54.350Z,94980.44
2022-08-05T20:12:24.931Z,94976.69
2022-08-05T20:14:53.146Z,94976.03
2022-08-05T20:17:23.588Z,94986.00
2022-08-05T20:19:57.628Z,94999.75
2022-08-05T20:22:27.022Z,95007.94
2022-08-05T20:24:55.372Z,95029.38
2022-08-05T20:27:27.309Z,95045.88
2022-08-05T20:30:11.419Z,95053.91
2022-08-05T20:32:45.176Z,95077.75
2022-08-05T20:35:13.430Z,95079.88
2022-08-05T20:38:05.785Z,95087.06
2022-08-05T20:40:30.542Z,95088.53
2022-08-05T20:43:03.573Z,95111.56
2022-08-05T20:45:56.653Z,95125.28
2022-08-05T20:48:19.930Z,95123.91
2022-08-05T20:50:48.219Z,95131.16
2022-08-05T20:53:36.465Z,95133.69
2022-08-05T20:56:08.667Z,95145.81
2022-08-05T20:58:38.254Z,95153.28
2022-08-05T21:01:05.976Z,95153.44
2022-08-05T21:03:34.554Z,95141.91
2022-08-05T21:06:02.748Z,95144.19
2022-08-05T21:08:36.024Z,95143.06
2022-08-05T21:11:11.590Z,95164.09
2022-08-05T21:13:48.337Z,95174.34
2022-08-05T21:16:29.666Z,95194.00
2022-08-05T21:18:59.888Z,95191.00
2022-08-05T21:21:43.849Z,95200.22
2022-08-05T21:24:16.112Z,95205.81
2022-08-05T21:26:53.171Z,95205.63
2022-08-05T21:29:26.419Z,95214.53
2022-08-05T21:31:59.495Z,95215.25
2022-08-05T21:34:28.190Z,95227.16
2022-08-05T21:36:56.152Z,95223.44
2022-08-05T21:39:26.971Z,95228.88
2022-08-05T21:42:01.878Z,95227.13
2022-08-05T21:44:32.065Z,95248.22
2022-08-05T21:47:00.212Z,95253.38
2022-08-05T21:49:58.603Z,95274.84
2022-08-05T21:52:27.431Z,95277.56
2022-08-05T21:54:56.531Z,95276.28
2022-08-05T21:57:32.525Z,95273.59
2022-08-05T22:00:05.006Z,95265.41
2022-08-05T22:02:34.779Z,95279.16
2022-08-05T22:05:04.304Z,95286.72
2022-08-05T22:07:40.159Z,95292.81
2022-08-05T22:10:26.507Z,95295.81
2022-08-05T22:12:55.208Z,95297.47
2022-08-05T22:15:56.471Z,95297.22
2022-08-05T22:18:15.422Z,95282.06
2022-08-05T22:20:47.365Z,95276.72
2022-08-05T22:24:03.037Z,95276.47
2022-08-05T22:26:42.172Z,95285.47
2022-08-05T22:29:18.670Z,95277.69
2022-08-05T22:31:55.004Z,95271.75
2022-08-05T22:34:28.690Z,95284.50
2022-08-05T22:36:58.564Z,95292.22
2022-08-05T22:39:32.606Z,95283.94
2022-08-05T22:42:10.737Z,95292.22
2022-08-05T22:44:40.848Z,95297.69
2022-08-05T22:47:11.981Z,95301.06
2022-08-05T22:50:20.932Z,95318.19
2022-08-05T22:52:32.203Z,95319.47
2022-08-05T22:55:02.091Z,95323.69
2022-08-05T22:57:36.193Z,95323.97
2022-08-05T23:00:07.834Z,95329.19
2022-08-05T23:02:40.030Z,95326.72
2022-08-05T23:05:15.323Z,95333.38
2022-08-05T23:07:45.079Z,95328.38
2022-08-05T23:10:20.246Z,95336.94
2022-08-05T23:12:51.188Z,95336.19
2022-08-05T23:15:22.269Z,95334.47
2022-08-05T23:18:01.458Z,95341.09
2022-08-05T23:20:30.585Z,95333.66
2022-08-05T23:22:58.636Z,95338.34
2022-08-05T23:25:52.618Z,95335.00
2022-08-05T23:28:15.894Z,95341.66
2022-08-05T23:30:53.949Z,95331.19
2022-08-05T23:33:26.119Z,95326.81
2022-08-05T23:36:13.779Z,95343.94
2022-08-05T23:38:42.100Z,95332.34
2022-08-05T23:41:10.776Z,95338.09
2022-08-05T23:44:05.062Z,95337.56
2022-08-05T23:46:26.407Z,95343.09
2022-08-05T23:48:59.773Z,95339.53
2022-08-05T23:51:53.663Z,95334.81
2022-08-05T23:54:25.673Z,95340.56
2022-08-05T23:56:54.937Z,95355.44
2022-08-05T23:59:23.176Z,95362.31
